Time;durP1;ratioP1;P1;durP2;ratioP2;P2;SDS_P1;SDS_P2;PMS_P1;PMS_P2;Temp;Humidity;BMP_temperature;BMP_pressure;BME280_temperature;BME280_humidity;BME280_pressure;Samples;Min_cycle;Max_cycle;Signal;HPM_P1;HPM_P2
2021/12/21 05:02:38;;;;;;;5.07;1.67;;;;;;;-2.28;64.17;100556.31;4485230;31;198684;-73
2021/12/21 05:05:25;;;;;;;3.67;1.45;;;;;;;-2.28;64.17;100556.31;4492494;31;33680;-72
2021/12/21 05:08:31;;;;;;;5.95;1.50;;;;;;;-2.55;64.23;100560.81;4491185;31;34766;-72
2021/12/21 05:11:20;;;;;;;3.05;1.27;;;;;;;-2.57;63.33;100565.53;4492446;31;34943;-72
2021/12/21 05:14:07;;;;;;;3.95;1.10;;;;;;;-2.47;63.05;100563.31;4480863;32;34431;-72
2021/12/21 05:16:54;;;;;;;3.42;1.25;;;;;;;-2.39;62.02;100565.81;4492393;31;34062;-72
2021/12/21 05:19:40;;;;;;;2.53;0.80;;;;;;;-2.56;62.32;100572.56;4492195;31;34152;-72
2021/12/21 05:22:29;;;;;;;1.10;0.47;;;;;;;-2.45;61.09;100574.66;4481450;32;35015;-74
2021/12/21 05:25:17;;;;;;;3.53;0.93;;;;;;;-2.34;60.36;100587.47;4492216;31;35382;-74
2021/12/21 05:28:05;;;;;;;3.20;0.75;;;;;;;-2.19;59.95;100587.34;4480732;31;34063;-75
2021/12/21 05:30:51;;;;;;;2.05;0.70;;;;;;;-2.24;60.27;100588.97;4480439;32;34795;-73
2021/12/21 05:33:38;;;;;;;1.62;0.57;;;;;;;-2.48;59.62;100599.22;4491868;31;35935;-74
2021/12/21 05:36:25;;;;;;;2.17;0.80;;;;;;;-1.95;58.49;100588.59;4491285;31;34187;-74
2021/12/21 05:39:19;;;;;;;3.62;1.33;;;;;;;-2.46;61.92;100591.78;4480974;31;35158;-75
2021/12/21 05:42:06;;;;;;;5.35;1.08;;;;;;;-2.62;63.47;100592.16;4491965;31;37402;-74
2021/12/21 05:44:53;;;;;;;3.65;0.93;;;;;;;-2.14;59.84;100584.00;4491242;32;35954;-75
2021/12/21 05:47:39;;;;;;;3.40;1.33;;;;;;;-2.00;58.38;100592.91;4480335;32;34453;-74
2021/12/21 05:50:26;;;;;;;3.47;1.23;;;;;;;-1.54;57.71;100603.66;4479762;31;34984;-74
2021/12/21 05:53:12;;;;;;;3.30;1.00;;;;;;;-2.16;59.52;100603.03;4476218;32;36699;-74
2021/12/21 05:55:58;;;;;;;3.08;0.80;;;;;;;-2.06;59.44;100613.37;4481141;31;35860;-74
2021/12/21 05:58:45;;;;;;;4.62;1.20;;;;;;;-1.98;58.67;100621.22;4492032;32;34082;-74
2021/12/21 06:01:32;;;;;;;3.65;0.95;;;;;;;-2.21;59.07;100620.78;4479056;31;34188;-74
2021/12/21 06:04:21;;;;;;;2.65;1.08;;;;;;;-1.98;58.45;100631.16;4482005;32;35316;-74
2021/12/21 06:07:07;;;;;;;3.60;1.30;;;;;;;-2.03;59.39;100635.25;4491427;31;36030;-76
2021/12/21 06:09:56;;;;;;;4.70;1.00;;;;;;;-2.60;61.11;100646.44;4488547;31;36621;-74
2021/12/21 06:27:33;;;;;;;2.10;1.10;;;;;;;-2.32;64.75;100670.50;4474494;31;34593;-75
2021/12/21 06:30:21;;;;;;;5.62;1.42;;;;;;;-2.95;66.87;100676.00;4465242;31;34636;-75
2021/12/21 06:33:11;;;;;;;3.75;1.20;;;;;;;-2.64;65.47;100682.78;4468837;32;34538;-75
2021/12/21 06:35:57;;;;;;;5.85;1.65;;;;;;;-2.96;66.46;100682.34;4479475;32;34095;-75
2021/12/21 06:38:44;;;;;;;2.92;1.20;;;;;;;-2.97;66.66;100691.44;4478515;31;35300;-76
2021/12/21 06:41:30;;;;;;;5.57;1.67;;;;;;;-2.53;65.37;100693.75;4478468;31;34822;-72
2021/12/21 06:44:17;;;;;;;2.33;1.08;;;;;;;-3.00;66.22;100695.34;4479207;31;34603;-72
2021/12/21 06:51:09;;;;;;;4.62;1.58;;;;;;;-2.77;66.08;100687.00;4465566;32;34596;-77
2021/12/21 06:53:27;;;;;;;3.75;1.83;;;;;;;-2.71;65.56;100685.41;4480654;31;35110;-79
2021/12/21 06:56:14;;;;;;;5.72;1.60;;;;;;;-3.18;66.81;100690.47;4480132;32;34960;-80
2021/12/21 06:59:00;;;;;;;11.50;1.73;;;;;;;-3.19;67.30;100687.97;4479365;31;35038;-76
2021/12/21 07:01:48;;;;;;;3.15;1.25;;;;;;;-3.15;67.67;100699.16;4479417;31;33842;-77
2021/12/21 07:04:35;;;;;;;5.62;2.08;;;;;;;-3.21;67.86;100700.75;4481011;31;34574;-75
2021/12/21 07:07:25;;;;;;;4.75;1.75;;;;;;;-3.18;68.12;100708.41;4480095;32;34355;-79
2021/12/21 13:08:28;;;;;;;5.15;2.00;;;;;;;0.60;62.24;100623.19;4489520;31;141298;-76
2021/12/21 13:11:24;;;;;;;8.32;2.62;;;;;;;0.96;60.29;100630.50;4470054;32;33631;-76
2021/12/21 13:14:12;;;;;;;5.37;2.37;;;;;;;1.18;59.60;100620.09;4461154;32;34633;-76
2021/12/21 13:16:59;;;;;;;6.37;2.53;;;;;;;1.04;59.91;100621.28;4469349;32;34567;-77
2021/12/21 13:19:45;;;;;;;7.80;2.53;;;;;;;1.34;59.09;100629.47;4480106;32;35246;-76
2021/12/21 13:22:31;;;;;;;7.57;2.50;;;;;;;1.13;60.04;100630.72;4479246;32;35133;-77
2021/12/21 13:25:18;;;;;;;6.07;1.75;;;;;;;1.02;59.97;100631.47;4476503;31;34605;-78
2021/12/21 13:28:12;;;;;;;5.35;1.92;;;;;;;1.18;58.54;100625.50;4468639;32;34569;-75
2021/12/21 13:30:59;;;;;;;5.25;1.85;;;;;;;0.85;58.92;100626.69;4464470;32;35476;-78
2021/12/21 13:33:55;;;;;;;6.25;2.28;;;;;;;1.19;57.85;100627.13;4472309;32;34944;-78
2021/12/21 13:36:45;;;;;;;7.25;2.65;;;;;;;1.29;57.67;100623.91;4465264;31;34244;-78
2021/12/21 13:39:35;;;;;;;7.72;2.70;;;;;;;1.18;57.09;100624.66;4474343;31;35071;-77
2021/12/21 13:42:23;;;;;;;6.53;2.35;;;;;;;1.02;57.38;100615.28;4467639;32;34149;-78
2021/12/21 13:45:09;;;;;;;4.62;2.00;;;;;;;0.77;58.64;100616.16;4465927;32;33969;-77
2021/12/21 13:47:55;;;;;;;4.65;1.80;;;;;;;1.12;57.76;100621.00;4484302;32;33272;-77
2021/12/21 13:50:42;;;;;;;4.18;1.95;;;;;;;0.50;59.45;100617.44;4467007;31;33796;-78
2021/12/21 13:53:28;;;;;;;5.43;2.15;;;;;;;0.67;58.90;100618.53;4472049;32;34381;-78
2021/12/21 13:56:21;;;;;;;4.60;1.75;;;;;;;0.27;60.20;100618.88;4481718;32;33700;-78
2021/12/21 13:59:10;;;;;;;6.93;3.00;;;;;;;0.89;59.10;100619.78;4479622;31;35606;-78
2021/12/21 14:01:58;;;;;;;7.30;3.37;;;;;;;1.12;57.98;100618.28;4469214;32;35869;-78
2021/12/21 14:04:58;;;;;;;6.75;3.03;;;;;;;0.98;58.37;100614.09;4479170;32;34315;-77
2021/12/21 14:07:48;;;;;;;4.65;2.25;;;;;;;0.96;58.06;100611.59;4481322;32;33693;-77
2021/12/21 14:10:49;;;;;;;7.18;2.50;;;;;;;1.10;57.91;100615.81;4464548;32;35170;-75
2021/12/21 14:13:40;;;;;;;6.37;3.08;;;;;;;0.40;60.48;100615.25;4473280;32;35534;-75
2021/12/21 14:16:31;;;;;;;7.60;3.10;;;;;;;0.36;61.22;100620.25;4474835;31;34139;-75
2021/12/21 14:19:23;;;;;;;4.75;2.45;;;;;;;0.44;61.62;100616.47;4464880;32;32921;-78
2021/12/21 14:22:10;;;;;;;6.00;2.22;;;;;;;0.77;60.52;100616.16;4457222;32;34107;-77
2021/12/21 14:24:56;;;;;;;7.32;2.85;;;;;;;1.34;58.77;100622.19;4456366;32;34620;-78
2021/12/21 14:27:42;;;;;;;8.90;3.17;;;;;;;0.40;62.18;100632.25;4472640;31;34582;-77
2021/12/21 14:30:29;;;;;;;7.97;3.45;;;;;;;0.27;63.39;100624.28;4463879;32;34139;-77
2021/12/21 14:33:27;;;;;;;9.32;3.90;;;;;;;0.20;63.97;100620.81;4467128;32;35249;-77
2021/12/21 14:36:15;;;;;;;9.85;3.42;;;;;;;0.36;63.81;100622.94;4460363;32;35940;-77
2021/12/21 14:39:11;;;;;;;7.47;3.90;;;;;;;0.06;64.49;100622.78;4448527;32;34550;-78
2021/12/21 14:42:01;;;;;;;11.75;3.85;;;;;;;-0.20;65.98;100623.72;4451421;32;34292;-78
2021/12/21 14:44:53;;;;;;;10.18;4.07;;;;;;;0.29;64.54;100627.56;4454394;32;35212;-78
2021/12/21 14:47:40;;;;;;;8.55;3.70;;;;;;;-0.08;65.66;100630.09;4472929;32;35068;-78
2021/12/21 14:50:36;;;;;;;8.30;3.37;;;;;;;0.27;64.51;100629.66;4464899;32;34125;-78
2021/12/21 14:53:29;;;;;;;6.55;3.30;;;;;;;-0.12;65.99;100628.88;4464078;32;34197;-78
2021/12/21 14:56:26;;;;;;;11.38;3.67;;;;;;;-0.35;67.10;100631.28;4459589;32;34362;-78
2021/12/21 14:59:13;;;;;;;6.55;3.10;;;;;;;-0.43;67.67;100634.22;4455131;32;34621;-78
2021/12/21 15:02:05;;;;;;;10.48;3.53;;;;;;;-0.65;68.73;100629.16;4464639;32;35498;-78
2021/12/21 15:05:00;;;;;;;8.82;3.67;;;;;;;-0.83;69.26;100631.69;4454088;32;35143;-78
2021/12/21 15:07:46;;;;;;;10.38;4.72;;;;;;;-0.58;68.54;100638.00;4449253;32;34782;-78
2021/12/21 15:10:35;;;;;;;11.88;5.57;;;;;;;-0.16;66.70;100643.81;4453356;32;35008;-78
2021/12/21 15:13:21;;;;;;;11.57;5.00;;;;;;;-0.29;67.19;100646.56;4455829;32;34531;-78
2021/12/21 15:16:08;;;;;;;11.25;5.35;;;;;;;0.02;66.37;100653.87;4463049;32;34231;-78
2021/12/21 15:18:54;;;;;;;16.67;7.35;;;;;;;0.19;65.51;100655.00;4464316;32;35559;-78
2021/12/21 15:21:41;;;;;;;30.37;15.50;;;;;;;-0.25;67.07;100651.34;4463449;32;35039;-78
2021/12/21 15:24:27;;;;;;;24.48;15.07;;;;;;;0.36;65.48;100655.28;4464564;32;34567;-78
2021/12/21 15:27:14;;;;;;;24.45;12.60;;;;;;;0.48;64.30;100657.28;4465601;31;34747;-78
2021/12/21 15:30:00;;;;;;;13.40;6.85;;;;;;;0.70;64.09;100649.63;4457342;32;34549;-78
2021/12/21 15:32:47;;;;;;;19.37;7.37;;;;;;;0.79;63.09;100651.00;4458928;32;34945;-78
2021/12/21 15:35:34;;;;;;;13.13;6.05;;;;;;;0.41;64.02;100657.34;4468880;32;34465;-79
2021/12/21 15:38:20;;;;;;;15.88;7.37;;;;;;;0.48;64.15;100659.97;4448527;31;34026;-78
2021/12/21 15:41:07;;;;;;;13.85;6.28;;;;;;;0.26;65.23;100660.37;4459510;31;35436;-79
2021/12/21 15:43:53;;;;;;;12.93;6.40;;;;;;;0.61;63.89;100654.50;4454465;32;34858;-78
2021/12/21 15:46:48;;;;;;;;;;;;;;;0.34;64.45;100646.63;4461548;32;34165;-76
2021/12/21 15:49:34;;;;;;;23.65;11.35;;;;;;;0.93;62.51;100654.41;4463800;32;34491;-76
2021/12/21 15:52:22;;;;;;;78.65;32.92;;;;;;;1.41;61.09;100657.22;4456010;32;34454;-76
2021/12/21 15:55:11;;;;;;;71.68;28.73;;;;;;;1.22;61.36;100663.66;4447476;32;34654;-76
2021/12/21 15:57:58;;;;;;;54.38;25.95;;;;;;;1.11;61.95;100663.38;4446569;32;34149;-76
2021/12/21 16:00:44;;;;;;;43.72;19.05;;;;;;;1.78;59.56;100663.41;4471381;32;33895;-76
2021/12/21 16:03:34;;;;;;;35.03;16.40;;;;;;;1.84;59.02;100661.66;4472643;32;35414;-76
2021/12/21 16:06:20;;;;;;;23.55;12.48;;;;;;;1.66;59.33;100665.22;4455439;32;35522;-76
2021/12/21 16:09:06;;;;;;;27.70;14.45;;;;;;;1.38;60.43;100665.78;4458396;31;34419;-76
2021/12/21 16:11:55;;;;;;;26.40;14.60;;;;;;;0.83;62.31;100663.84;4470474;31;34490;-76
2021/12/21 16:14:42;;;;;;;31.98;14.38;;;;;;;1.00;61.85;100655.19;4454004;31;35502;-76
2021/12/21 16:17:28;;;;;;;29.05;14.48;;;;;;;0.91;62.01;100657.31;4447087;31;34905;-76
2021/12/21 16:20:16;;;;;;;28.15;14.18;;;;;;;1.08;62.20;100660.25;4466107;31;34385;-76
2021/12/21 16:23:02;;;;;;;33.97;15.93;;;;;;;1.24;61.58;100667.78;4458252;31;34186;-76
2021/12/21 16:25:48;;;;;;;39.03;17.48;;;;;;;1.30;61.11;100653.38;4455563;31;34579;-77
2021/12/21 16:28:35;;;;;;;39.50;17.25;;;;;;;1.43;60.63;100657.00;4465936;31;34549;-77
2021/12/21 16:31:24;;;;;;;92.65;36.17;;;;;;;1.45;60.57;100657.59;4453922;31;35493;-77
2021/12/21 16:34:10;;;;;;;305.05;108.20;;;;;;;1.05;61.77;100666.09;4458463;31;33765;-77
2021/12/21 16:36:56;;;;;;;132.27;51.22;;;;;;;0.67;63.43;100664.41;4467163;31;35316;-77
2021/12/21 16:39:42;;;;;;;148.25;58.10;;;;;;;0.61;63.63;100666.09;4469810;31;34633;-76
2021/12/21 16:42:32;;;;;;;137.60;57.65;;;;;;;0.61;63.86;100670.69;4465803;32;33188;-76
2021/12/21 16:45:19;;;;;;;117.13;46.30;;;;;;;0.67;63.63;100672.47;4466771;32;34205;-76
2021/12/21 16:48:06;;;;;;;142.93;55.70;;;;;;;0.45;64.30;100662.06;4471641;32;35564;-77
2021/12/21 16:50:54;;;;;;;104.15;42.88;;;;;;;0.12;65.72;100666.88;4466509;32;34914;-76
2021/12/21 16:53:40;;;;;;;73.70;31.02;;;;;;;0.73;64.14;100663.50;4469525;32;34584;-77
2021/12/21 16:56:28;;;;;;;88.45;38.67;;;;;;;0.87;63.54;100656.94;4466709;32;33890;-77
2021/12/21 16:59:14;;;;;;;72.78;31.87;;;;;;;0.78;63.66;100658.28;4459650;32;34280;-77
2021/12/21 17:02:00;;;;;;;81.18;35.78;;;;;;;0.99;62.49;100648.13;4455618;32;35000;-77
2021/12/21 17:04:47;;;;;;;79.43;36.40;;;;;;;0.69;63.42;100648.81;4453239;32;33651;-76
2021/12/21 17:07:34;;;;;;;78.43;33.35;;;;;;;0.68;63.62;100668.72;4465005;32;34278;-76
2021/12/21 17:10:23;;;;;;;63.47;28.48;;;;;;;0.90;62.48;100656.50;4457012;32;34643;-76
2021/12/21 17:13:15;;;;;;;55.83;23.50;;;;;;;1.10;62.16;100650.06;4453461;32;34756;-76
2021/12/21 17:16:01;;;;;;;54.47;23.62;;;;;;;0.97;62.16;100672.66;4454824;32;33593;-77
2021/12/21 17:18:48;;;;;;;58.17;26.33;;;;;;;0.92;62.46;100677.06;4454346;32;34750;-77
2021/12/21 17:21:34;;;;;;;58.33;26.23;;;;;;;1.10;62.09;100669.78;4454914;32;34235;-77
2021/12/21 17:24:21;;;;;;;58.00;29.33;;;;;;;1.07;61.75;100672.94;4467965;32;34128;-77
2021/12/21 17:27:07;;;;;;;52.33;24.65;;;;;;;0.80;62.69;100671.56;4455154;32;34531;-77
2021/12/21 17:29:56;;;;;;;53.87;25.98;;;;;;;0.76;63.17;100670.34;4465135;32;34422;-77
2021/12/21 17:32:45;;;;;;;55.80;26.17;;;;;;;0.61;63.24;100679.59;4470900;31;35907;-77
2021/12/21 17:35:32;;;;;;;62.85;32.78;;;;;;;0.87;62.51;100675.84;4454042;32;35828;-77
2021/12/21 17:38:22;;;;;;;62.65;31.67;;;;;;;0.89;62.35;100679.12;4467157;32;34555;-76
2021/12/21 17:41:13;;;;;;;59.35;29.50;;;;;;;0.64;62.80;100689.13;4460205;32;34928;-77
2021/12/21 17:43:59;;;;;;;59.95;29.25;;;;;;;0.74;62.66;100689.47;4467441;32;35575;-77
2021/12/21 17:46:46;;;;;;;58.45;28.10;;;;;;;0.92;62.30;100682.44;4462774;32;35695;-76
2021/12/21 17:49:32;;;;;;;54.90;26.42;;;;;;;0.60;62.93;100682.53;4466717;32;34201;-77
2021/12/21 17:52:21;;;;;;;51.08;25.25;;;;;;;0.42;63.47;100681.37;4466912;32;32944;-77
2021/12/21 17:55:11;;;;;;;58.45;24.73;;;;;;;0.37;63.53;100683.94;4461804;32;34617;-76
2021/12/21 17:57:57;;;;;;;53.00;24.75;;;;;;;0.26;64.59;100681.94;4459149;32;34920;-76
2021/12/21 18:00:44;;;;;;;58.63;26.40;;;;;;;-0.37;66.80;100687.22;4449372;32;34602;-77
2021/12/21 18:03:30;;;;;;;53.97;24.48;;;;;;;-0.01;65.14;100698.22;4457333;32;34255;-77
2021/12/21 18:06:17;;;;;;;51.65;25.05;;;;;;;-0.02;66.13;100696.59;4458124;32;35224;-76
2021/12/21 18:09:03;;;;;;;55.88;26.25;;;;;;;-0.39;66.70;100698.22;4455387;32;35005;-76
2021/12/21 18:11:51;;;;;;;69.22;29.58;;;;;;;-0.59;67.71;100689.38;4466684;31;33433;-76
2021/12/21 18:14:37;;;;;;;54.80;25.25;;;;;;;-0.76;67.61;100694.41;4454259;32;33818;-76
2021/12/21 18:17:23;;;;;;;54.42;23.85;;;;;;;0.04;65.90;100703.00;4456782;32;34506;-76
2021/12/21 18:20:11;;;;;;;51.45;22.52;;;;;;;0.11;65.46;100695.69;4455927;32;35005;-76
2021/12/21 18:22:58;;;;;;;48.90;22.92;;;;;;;0.42;64.30;100692.16;4445041;32;34344;-76
2021/12/21 18:25:45;;;;;;;52.65;22.75;;;;;;;0.33;64.26;100693.47;4448584;32;34811;-76
2021/12/21 18:28:34;;;;;;;49.88;22.80;;;;;;;-0.63;66.84;100697.03;4454464;32;33644;-77
2021/12/21 18:31:21;;;;;;;47.15;19.33;;;;;;;-0.89;68.77;100689.03;4453691;32;35009;-76
2021/12/21 18:34:12;;;;;;;38.42;16.25;;;;;;;-0.84;68.69;100697.31;4471067;32;35591;-76
2021/12/21 18:37:02;;;;;;;28.62;13.85;;;;;;;-0.65;68.22;100699.13;4447907;32;34126;-76
2021/12/21 18:39:52;;;;;;;31.23;14.95;;;;;;;-1.05;69.10;100688.44;4453423;32;35600;-76
2021/12/21 18:42:39;;;;;;;40.75;18.75;;;;;;;-0.18;66.57;100694.37;4456644;32;35968;-76
2021/12/21 18:45:27;;;;;;;39.65;18.80;;;;;;;-0.64;67.37;100692.69;4448493;32;34276;-76
2021/12/21 18:48:14;;;;;;;38.97;18.05;;;;;;;-0.88;67.88;100686.16;4466510;32;34180;-76
2021/12/21 18:51:00;;;;;;;33.03;15.82;;;;;;;-1.29;69.48;100683.69;4455844;32;34179;-76
2021/12/21 18:53:47;;;;;;;37.58;17.25;;;;;;;-1.69;71.44;100689.06;4468936;32;35950;-76
2021/12/21 18:56:34;;;;;;;32.25;16.90;;;;;;;-1.55;71.88;100695.28;4457000;32;35044;-76
2021/12/21 18:59:20;;;;;;;28.02;14.23;;;;;;;-2.13;73.47;100703.84;4455863;32;34210;-76
2021/12/21 19:02:11;;;;;;;27.77;12.77;;;;;;;-2.44;74.10;100702.47;4463673;32;35245;-76
2021/12/21 19:04:57;;;;;;;25.73;11.77;;;;;;;-2.13;72.90;100698.47;4453247;32;36470;-75
2021/12/21 19:07:44;;;;;;;28.85;11.35;;;;;;;-3.36;78.77;100713.41;4465759;32;35608;-75
2021/12/21 19:10:32;;;;;;;25.50;10.63;;;;;;;-2.14;74.60;100704.84;4465489;32;33173;-74
2021/12/21 19:13:19;;;;;;;24.08;11.30;;;;;;;-1.43;70.90;100699.00;4466309;32;34270;-76
2021/12/21 19:16:05;;;;;;;23.15;10.00;;;;;;;-1.23;69.82;100693.63;4452644;32;33876;-76
2021/12/21 19:18:52;;;;;;;19.55;9.35;;;;;;;-2.16;73.59;100699.69;4454621;32;33263;-76
2021/12/21 19:21:39;;;;;;;21.80;10.15;;;;;;;-2.30;74.45;100709.56;4467424;32;33752;-76
2021/12/21 19:24:28;;;;;;;19.10;8.80;;;;;;;-2.12;73.13;100700.12;4468930;32;34421;-76
2021/12/21 19:27:16;;;;;;;19.98;8.63;;;;;;;-1.35;70.66;100701.47;4468613;31;35108;-75
2021/12/21 19:30:05;;;;;;;21.33;9.05;;;;;;;-1.23;69.35;100691.75;4457913;32;34478;-76
2021/12/21 19:32:52;;;;;;;19.08;9.18;;;;;;;-1.12;69.17;100709.13;4469017;32;35050;-76
2021/12/21 19:35:41;;;;;;;19.55;8.40;;;;;;;-2.63;74.53;100708.56;4454934;32;35500;-76
2021/12/21 19:38:30;;;;;;;16.12;7.20;;;;;;;-3.02;76.62;100712.63;4471247;32;34651;-75
2021/12/21 19:41:17;;;;;;;15.05;7.07;;;;;;;-3.95;80.49;100719.88;4458470;32;35394;-76
2021/12/21 19:44:09;;;;;;;14.98;6.90;;;;;;;-3.42;78.95;100721.19;4456283;32;34166;-75
2021/12/21 19:46:56;;;;;;;;;;;;;;;-2.41;75.58;100720.03;4451042;32;34207;-75
2021/12/21 19:49:42;;;;;;;17.67;8.63;;;;;;;-1.84;72.64;100719.63;4452196;32;35205;-75
2021/12/21 19:52:29;;;;;;;15.23;7.62;;;;;;;-2.50;74.11;100719.38;4465897;32;35723;-75
2021/12/21 19:55:16;;;;;;;15.52;6.85;;;;;;;-1.51;70.47;100723.38;4466201;31;33939;-75
2021/12/21 19:58:03;;;;;;;19.92;8.70;;;;;;;-1.47;69.49;100716.59;4465001;32;34576;-76
2021/12/21 20:00:50;;;;;;;27.60;11.77;;;;;;;-1.34;69.05;100719.25;4462626;31;34736;-75
2021/12/21 20:03:37;;;;;;;28.65;13.15;;;;;;;-1.31;68.53;100723.41;4465299;32;34343;-76
2021/12/21 20:06:25;;;;;;;29.60;12.07;;;;;;;-1.44;68.94;100725.06;4453028;32;34616;-75
2021/12/21 20:09:12;;;;;;;28.25;11.25;;;;;;;-1.64;70.10;100721.50;4449078;32;34567;-75
2021/12/21 20:12:10;;;;;;;19.45;8.75;;;;;;;-1.39;69.58;100727.12;4474158;32;34573;-75
2021/12/21 20:14:58;;;;;;;17.10;8.95;;;;;;;-2.97;75.76;100723.62;4455140;32;35458;-75
2021/12/21 20:17:50;;;;;;;20.37;9.38;;;;;;;-2.95;75.31;100721.56;4429989;32;34452;-75
2021/12/21 20:20:39;;;;;;;22.55;10.43;;;;;;;-2.56;74.32;100728.19;4454080;32;34643;-75
2021/12/21 20:23:25;;;;;;;21.12;10.68;;;;;;;-2.64;74.53;100728.37;4467354;32;36319;-75
2021/12/21 20:26:12;;;;;;;19.15;9.60;;;;;;;-2.05;71.85;100727.81;4453262;32;34509;-75
2021/12/21 20:28:58;;;;;;;21.08;9.32;;;;;;;-1.99;71.69;100731.53;4468067;32;34232;-76
2021/12/21 20:31:45;;;;;;;28.65;11.18;;;;;;;-1.61;70.20;100732.69;4470307;32;35050;-75
2021/12/21 20:34:33;;;;;;;21.37;10.40;;;;;;;-1.54;69.87;100734.53;4457192;32;34959;-75
2021/12/21 20:37:23;;;;;;;22.40;9.85;;;;;;;-1.35;68.21;100736.44;4455208;32;34827;-76
2021/12/21 20:40:12;;;;;;;18.52;8.93;;;;;;;-1.19;67.75;100727.16;4459340;32;36962;-76
2021/12/21 20:43:05;;;;;;;23.65;9.57;;;;;;;-1.40;67.87;100730.84;4468075;32;34614;-74
2021/12/21 20:45:52;;;;;;;26.00;10.25;;;;;;;-1.06;66.86;100737.06;4454729;32;34997;-74
2021/12/21 20:48:39;;;;;;;33.00;16.02;;;;;;;-0.86;66.02;100737.88;4455701;32;34208;-75
2021/12/21 20:51:25;;;;;;;28.02;11.80;;;;;;;-1.16;66.76;100735.63;4472705;32;34275;-74
2021/12/21 20:54:16;;;;;;;24.73;10.30;;;;;;;-1.10;66.42;100744.72;4459598;32;34534;-75
2021/12/21 20:57:03;;;;;;;24.40;11.15;;;;;;;-1.14;66.49;100738.09;4472031;32;35967;-75
2021/12/21 20:59:52;;;;;;;25.95;11.02;;;;;;;-1.79;69.53;100742.34;4459761;32;34624;-75
2021/12/21 21:02:41;;;;;;;29.55;13.23;;;;;;;-1.54;67.95;100731.84;4472715;32;33046;-75
2021/12/21 21:05:28;;;;;;;24.55;11.68;;;;;;;-3.23;73.94;100732.28;4470298;32;34597;-75
2021/12/21 21:08:14;;;;;;;28.30;13.05;;;;;;;-2.13;71.10;100730.69;4457757;32;35905;-75
2021/12/21 21:11:04;;;;;;;28.77;13.40;;;;;;;-2.11;70.89;100736.66;4459997;32;34587;-76
2021/12/21 21:13:50;;;;;;;28.65;13.90;;;;;;;-1.95;70.42;100735.50;4455546;32;34176;-75
2021/12/21 21:16:39;;;;;;;35.47;13.85;;;;;;;-2.53;72.32;100735.87;4466846;32;34520;-75
2021/12/21 21:19:28;;;;;;;39.35;14.98;;;;;;;-1.90;69.91;100733.84;4450291;32;33587;-76
2021/12/21 21:22:18;;;;;;;33.55;14.65;;;;;;;-1.76;69.73;100734.72;4459386;32;35699;-74
2021/12/21 21:25:05;;;;;;;30.55;14.63;;;;;;;-1.85;70.37;100733.22;4472284;32;34177;-74
2021/12/21 21:27:51;;;;;;;39.45;16.30;;;;;;;-1.65;69.70;100739.50;4470601;32;35607;-74
2021/12/21 21:30:38;;;;;;;64.68;22.70;;;;;;;-1.46;68.91;100742.41;4470060;32;35530;-75
2021/12/21 21:33:24;;;;;;;75.62;31.52;;;;;;;-1.53;69.11;100746.97;4461598;32;34512;-74
2021/12/21 21:36:11;;;;;;;79.68;32.92;;;;;;;-1.43;68.33;100742.00;4472266;32;34290;-75
2021/12/21 21:38:59;;;;;;;80.55;32.10;;;;;;;-1.53;68.51;100746.97;4458410;32;35620;-75
2021/12/21 21:41:46;;;;;;;64.20;30.25;;;;;;;-1.47;68.82;100744.28;4470975;32;35913;-75
2021/12/21 21:44:33;;;;;;;50.70;23.92;;;;;;;-1.26;68.05;100745.94;4474155;32;35490;-75
2021/12/21 21:47:19;;;;;;;35.55;16.92;;;;;;;-1.93;68.46;100750.38;4459453;32;35059;-75
2021/12/21 21:50:08;;;;;;;39.03;16.27;;;;;;;-1.49;68.09;100754.41;4462424;32;34666;-75
2021/12/21 21:56:02;;;;;;;39.63;17.58;;;;;;;-2.46;71.69;100757.38;4473110;32;35524;-75
2021/12/21 21:58:57;;;;;;;36.80;18.83;;;;;;;-1.80;69.84;100752.25;4472337;32;34169;-74
